Weather at David the Builder Kutaisi International Airport

Public forecast

Using degrees Celsius for public forecast. Weather courtesy of forecast.io.

Current aviation weather report (METAR) for David the Builder Kutaisi International Airport

2024/05/26 15:00 (retrieved 14 minutes ago)

UGKO 261500Z 25005KT 9999 BKN056 19/17 Q1014 NOSIG

Aviation forecast (TAF) for David the Builder Kutaisi International Airport

2024/05/26 12:28 (retrieved 3 hours ago)

TAF UGKO 261100Z 2612/2712 VRB02KT 9999 BKN060 TX29/2711Z TN13/2702Z TEMPO 2612/2618 SHRA BKN033CB BECMG 2620/2622 CAVOK TEMPO 2623/2705 0300 FG VV002